North Adams, Massachusetts
Current Conditions -  °F | °C
As of 6:52 AM on Thursday 27 Nov 2014 (Local Time) from KAQW Reporting Station
Overcast Overcast  
Wind Chill: 22°   Ceiling: 1100
Heat Index: 28°   Visibility: 10mi
Dew Point: 25°   Wind: 6mph
Humidity: 88%   Direction: 270°W
Pressure: 29.92"   Gusts: NA
Location:  42.7°N, 73.11°W
Report Text: KAQW 271152Z AUTO 27005KT 10SM OVC011 M02/M04 A2992 RMK AO2 SLP142 60001 70081 T10221039 11017 21022 53017 FZRANO $
Loading
Personal Weather Stations






























Interactive Weather Map New forecast layout! Learn more

10-Day Weather Forecast

Advertisements
Track Severe Weather on mobile